Time;durP1;ratioP1;P1;durP2;ratioP2;P2;SDS_P1;SDS_P2;PMS_P1;PMS_P2;Temp;Humidity;BMP_temperature;BMP_pressure;BME280_temperature;BME280_humidity;BME280_pressure;Samples;Min_cycle;Max_cycle;Signal;HPM_P1;HPM_P2
2021/04/05 00:00:18;;;;;;;6.47;3.30;;;7.20;42.50;;;;;;5061614;28;20032;-72
2021/04/05 00:02:45;;;;;;;8.23;3.70;;;7.10;42.60;;;;;;5063692;28;20023;-72
2021/04/05 00:05:26;;;;;;;8.57;3.78;;;7.10;42.70;;;;;;5063964;28;20075;-73
2021/04/05 00:07:54;;;;;;;7.90;3.80;;;7.10;42.70;;;;;;5056915;28;20112;-72
2021/04/05 00:10:24;;;;;;;6.50;3.63;;;7.00;42.60;;;;;;5063240;28;20049;-72
2021/04/05 00:12:52;;;;;;;6.85;3.30;;;7.00;42.70;;;;;;5061425;28;20040;-73
2021/04/05 00:15:19;;;;;;;7.63;3.85;;;7.00;42.60;;;;;;5061563;28;20475;-72
2021/04/05 00:17:45;;;;;;;4.22;2.88;;;6.90;42.60;;;;;;5061630;28;20112;-72
2021/04/05 00:20:17;;;;;;;8.18;3.08;;;6.90;42.60;;;;;;5065559;28;20066;-72
2021/04/05 00:22:43;;;;;;;6.15;3.47;;;6.90;43.00;;;;;;5067708;28;20020;-72
2021/04/05 00:25:09;;;;;;;5.68;3.30;;;6.90;43.50;;;;;;5067719;28;20020;-72
2021/04/05 00:27:36;;;;;;;6.68;3.90;;;6.80;43.10;;;;;;5064772;28;20032;-73
2021/04/05 00:30:10;;;;;;;8.80;4.20;;;6.80;43.20;;;;;;5067628;28;20035;-72
2021/04/05 00:32:36;;;;;;;7.13;3.28;;;6.80;43.50;;;;;;5066671;28;20021;-72
2021/04/05 00:35:05;;;;;;;7.43;3.15;;;6.80;43.40;;;;;;5066775;28;20028;-72
2021/04/05 00:37:31;;;;;;;8.27;3.17;;;6.80;43.80;;;;;;5068015;28;20024;-73
2021/04/05 00:39:57;;;;;;;6.20;3.40;;;6.80;43.70;;;;;;5067761;28;20505;-72
2021/04/05 00:42:22;;;;;;;5.75;3.33;;;6.70;43.90;;;;;;5067456;28;20032;-72
2021/04/05 00:44:49;;;;;;;6.25;3.45;;;6.70;43.90;;;;;;5066394;28;20031;-72
2021/04/05 00:47:15;;;;;;;5.78;3.53;;;6.70;44.20;;;;;;5065955;28;20021;-73
2021/04/05 00:49:43;;;;;;;5.32;2.85;;;6.70;43.90;;;;;;5061025;28;20020;-72
2021/04/05 00:52:09;;;;;;;6.90;2.38;;;6.70;44.00;;;;;;5059648;28;20045;-72
2021/04/05 00:54:36;;;;;;;8.65;4.13;;;6.70;43.90;;;;;;5062778;28;20038;-72
2021/04/05 00:57:02;;;;;;;6.13;3.28;;;6.60;44.30;;;;;;5066430;28;20381;-72
2021/04/05 00:59:28;;;;;;;6.43;3.22;;;6.60;44.20;;;;;;5061207;28;20057;-72
2021/04/05 01:01:54;;;;;;;6.13;2.60;;;6.60;44.40;;;;;;5067473;28;20386;-72
2021/04/05 01:04:20;;;;;;;5.82;3.03;;;6.60;44.20;;;;;;5066770;28;20856;-72
2021/04/05 01:06:45;;;;;;;5.20;3.10;;;6.60;44.40;;;;;;5066679;28;20027;-72
2021/04/05 01:09:13;;;;;;;7.57;3.85;;;6.50;44.50;;;;;;5066733;28;20029;-72
2021/04/05 01:11:39;;;;;;;6.40;3.03;;;6.50;44.80;;;;;;5066851;28;20021;-72
2021/04/05 01:14:04;;;;;;;7.25;3.30;;;6.50;44.70;;;;;;5059939;28;20028;-72
2021/04/05 01:16:31;;;;;;;5.47;2.92;;;6.50;44.60;;;;;;5058698;28;20017;-72
2021/04/05 01:18:58;;;;;;;5.30;3.20;;;6.50;44.50;;;;;;5055024;28;20107;-72
2021/04/05 01:21:25;;;;;;;4.35;3.00;;;6.40;44.60;;;;;;5055161;28;20479;-72
2021/04/05 01:23:50;;;;;;;7.05;3.42;;;6.50;44.70;;;;;;5053945;28;20074;-72
2021/04/05 01:26:18;;;;;;;4.65;2.83;;;6.40;44.70;;;;;;5054947;28;20028;-72
2021/04/05 01:28:44;;;;;;;5.30;3.10;;;6.40;44.80;;;;;;5054868;28;20029;-72
2021/04/05 01:31:10;;;;;;;6.15;2.72;;;6.40;44.90;;;;;;5055069;28;20036;-72
2021/04/05 01:33:38;;;;;;;4.40;2.65;;;6.40;45.00;;;;;;5053585;28;20104;-72
2021/04/05 01:36:07;;;;;;;4.40;2.65;;;6.30;45.00;;;;;;5054809;28;20025;-72
2021/04/05 01:38:34;;;;;;;4.55;2.53;;;6.30;45.20;;;;;;5072003;28;20466;-72
2021/04/05 01:41:13;;;;;;;4.68;2.65;;;6.30;45.40;;;;;;5074709;28;20074;-72
2021/04/05 01:43:40;;;;;;;5.40;2.85;;;6.30;45.40;;;;;;5074618;28;20416;-72
2021/04/05 01:46:07;;;;;;;7.53;3.20;;;6.30;45.30;;;;;;5074607;28;20078;-72
2021/04/05 01:48:34;;;;;;;6.22;3.25;;;6.20;45.60;;;;;;5074454;28;20044;-72
2021/04/05 01:51:07;;;;;;;7.20;3.42;;;6.20;45.80;;;;;;5072578;28;20083;-72
2021/04/05 01:53:34;;;;;;;6.32;2.88;;;6.20;46.60;;;;;;5074479;28;20028;-72
2021/04/05 01:56:05;;;;;;;6.28;2.80;;;6.20;45.90;;;;;;5073830;28;20028;-72
2021/04/05 01:58:33;;;;;;;5.03;2.85;;;6.20;45.80;;;;;;5051378;28;20025;-72
2021/04/05 02:00:59;;;;;;;6.68;3.35;;;6.20;45.80;;;;;;5054017;28;20382;-72
2021/04/05 02:03:28;;;;;;;5.75;3.10;;;6.10;45.80;;;;;;5052525;28;20036;-73
2021/04/05 02:06:19;;;;;;;5.53;2.88;;;6.10;46.00;;;;;;5054244;28;20590;-72
2021/04/05 02:08:46;;;;;;;5.55;2.75;;;6.10;46.20;;;;;;5052812;28;20025;-72
2021/04/05 02:11:17;;;;;;;6.07;2.92;;;6.10;45.90;;;;;;5057903;28;20053;-72
2021/04/05 02:13:54;;;;;;;8.15;2.95;;;6.10;46.40;;;;;;5054089;28;20025;-72
2021/04/05 02:16:21;;;;;;;3.95;2.55;;;6.00;46.30;;;;;;5052783;28;20025;-72
2021/04/05 02:18:48;;;;;;;3.50;2.10;;;6.00;46.20;;;;;;5054286;28;20021;-72
2021/04/05 02:21:15;;;;;;;4.35;2.25;;;6.00;46.40;;;;;;5053859;28;20393;-72
2021/04/05 02:23:47;;;;;;;6.93;2.55;;;6.00;46.50;;;;;;5053857;28;20029;-72
2021/04/05 02:26:17;;;;;;;6.38;2.58;;;6.00;46.60;;;;;;5065039;28;20072;-72
2021/04/05 02:28:48;;;;;;;4.28;2.70;;;6.00;46.80;;;;;;5073636;28;20390;-72
2021/04/05 02:31:24;;;;;;;6.35;3.20;;;5.90;46.90;;;;;;5072922;28;20016;-72
2021/04/05 02:33:52;;;;;;;4.28;2.65;;;5.90;47.10;;;;;;5073438;28;20371;-72
2021/04/05 02:36:30;;;;;;;3.25;2.22;;;5.90;47.10;;;;;;5073590;28;20017;-72
2021/04/05 02:39:01;;;;;;;5.25;2.63;;;5.90;47.30;;;;;;5053641;28;20122;-72
2021/04/05 02:41:30;;;;;;;4.63;2.70;;;5.90;47.50;;;;;;5053569;28;20013;-72
2021/04/05 02:43:57;;;;;;;3.80;2.53;;;5.90;47.70;;;;;;5052200;28;20475;-72
2021/04/05 02:46:29;;;;;;;3.63;2.10;;;5.90;47.50;;;;;;5053471;28;20075;-72
2021/04/05 02:49:03;;;;;;;3.83;2.60;;;5.90;47.60;;;;;;5053369;28;20108;-73
2021/04/05 02:51:29;;;;;;;5.90;2.90;;;5.90;47.40;;;;;;5051999;28;20544;-72
2021/04/05 02:53:59;;;;;;;7.15;2.58;;;5.90;47.70;;;;;;5055098;28;20036;-72
2021/04/05 02:56:26;;;;;;;4.80;2.70;;;5.90;47.80;;;;;;5055596;28;20028;-72
2021/04/05 02:58:54;;;;;;;4.47;2.60;;;5.90;47.80;;;;;;5052006;28;20037;-73
2021/04/05 03:01:22;;;;;;;5.10;3.20;;;5.80;47.70;;;;;;5068320;28;20040;-73
2021/04/05 03:03:48;;;;;;;5.18;2.90;;;5.80;47.90;;;;;;5053191;28;20498;-72
2021/04/05 03:06:21;;;;;;;4.95;2.78;;;5.80;47.90;;;;;;5053088;28;20029;-72
2021/04/05 03:08:47;;;;;;;4.90;2.90;;;5.70;47.90;;;;;;5053003;28;20024;-72
2021/04/05 03:11:16;;;;;;;4.47;2.55;;;5.70;47.80;;;;;;5066346;28;20485;-72
2021/04/05 03:13:42;;;;;;;5.32;2.55;;;5.70;47.80;;;;;;5073123;28;20031;-73
2021/04/05 03:16:13;;;;;;;7.18;3.08;;;5.70;47.80;;;;;;5073039;28;20099;-72
2021/04/05 03:18:40;;;;;;;5.80;2.65;;;5.70;47.90;;;;;;5073111;28;20074;-72
2021/04/05 03:21:08;;;;;;;4.40;2.83;;;5.60;47.90;;;;;;5072971;28;20031;-72
2021/04/05 03:23:35;;;;;;;4.88;2.83;;;5.60;48.10;;;;;;5073023;28;20074;-72
2021/04/05 03:26:01;;;;;;;7.80;3.15;;;5.60;48.10;;;;;;5072963;28;20021;-72
2021/04/05 03:28:27;;;;;;;3.80;2.53;;;5.60;48.20;;;;;;5072936;28;20499;-72
2021/04/05 03:31:04;;;;;;;6.13;3.28;;;5.60;48.20;;;;;;5071440;28;20079;-72
2021/04/05 03:33:39;;;;;;;8.68;3.45;;;5.50;48.50;;;;;;5072934;28;20017;-72
2021/04/05 03:36:12;;;;;;;6.85;3.28;;;5.50;49.10;;;;;;5071839;28;20370;-72
2021/04/05 03:38:38;;;;;;;4.38;2.45;;;5.50;49.40;;;;;;5072567;28;20385;-72
2021/04/05 03:41:11;;;;;;;5.80;2.63;;;5.50;49.20;;;;;;5072906;28;20043;-72
2021/04/05 03:43:46;;;;;;;3.90;2.53;;;5.50;49.10;;;;;;5072822;28;20063;-72
2021/04/05 03:46:22;;;;;;;7.13;3.40;;;5.50;49.20;;;;;;5072595;28;20482;-72
2021/04/05 03:49:26;;;;;;;5.25;3.25;;;5.50;49.40;;;;;;5075503;28;20050;-73
2021/04/05 03:52:07;;;;;;;5.32;2.97;;;5.50;49.90;;;;;;5076524;28;20037;-72
2021/04/05 03:54:45;;;;;;;4.68;2.78;;;5.40;49.80;;;;;;5069374;28;20032;-72
2021/04/05 03:57:14;;;;;;;4.47;2.58;;;5.40;49.70;;;;;;5075616;28;20386;-72
2021/04/05 03:59:47;;;;;;;7.45;2.65;;;5.40;50.30;;;;;;5068923;28;20394;-72
2021/04/05 04:02:27;;;;;;;7.85;2.33;;;5.40;49.70;;;;;;5056290;28;20024;-72
2021/04/05 04:05:03;;;;;;;3.42;2.30;;;5.40;49.60;;;;;;5054882;28;20463;-73
2021/04/05 04:07:40;;;;;;;6.80;2.70;;;5.40;49.40;;;;;;5056134;28;20025;-72
2021/04/05 04:10:11;;;;;;;7.03;2.83;;;5.30;49.40;;;;;;5056424;28;20098;-72
2021/04/05 04:12:39;;;;;;;4.90;2.78;;;5.30;49.40;;;;;;5056442;28;20017;-72
2021/04/05 04:15:06;;;;;;;3.97;2.33;;;5.30;49.40;;;;;;5071752;28;20032;-72
2021/04/05 04:17:36;;;;;;;4.07;2.80;;;5.30;49.40;;;;;;5054957;28;20124;-73
2021/04/05 04:20:08;;;;;;;5.95;3.25;;;5.30;49.50;;;;;;5071530;28;20029;-72
2021/04/05 04:22:35;;;;;;;3.67;2.50;;;5.20;49.60;;;;;;5071545;28;20021;-72
2021/04/05 04:25:01;;;;;;;6.35;3.10;;;5.20;49.50;;;;;;5071594;28;20040;-72
2021/04/05 04:27:27;;;;;;;4.93;2.70;;;5.20;49.60;;;;;;5056031;28;20071;-72
2021/04/05 04:29:54;;;;;;;6.32;2.85;;;5.20;49.70;;;;;;5058966;28;20441;-72
2021/04/05 04:32:21;;;;;;;6.40;3.25;;;5.20;49.80;;;;;;5075136;28;20024;-72
2021/04/05 04:34:46;;;;;;;5.88;3.10;;;5.20;50.00;;;;;;5075922;28;20032;-72
2021/04/05 04:37:13;;;;;;;4.82;2.80;;;5.20;50.20;;;;;;5074947;28;20386;-72
2021/04/05 04:39:39;;;;;;;9.93;3.63;;;5.20;50.30;;;;;;5073372;28;20481;-72
2021/04/05 04:42:06;;;;;;;7.90;3.20;;;5.20;50.30;;;;;;5075819;28;20433;-72
2021/04/05 04:44:32;;;;;;;4.70;2.78;;;5.10;50.10;;;;;;5075668;28;20032;-72
2021/04/05 04:46:57;;;;;;;4.53;2.88;;;5.10;50.20;;;;;;5075703;28;20504;-72
2021/04/05 04:49:23;;;;;;;4.47;2.60;;;5.10;50.20;;;;;;5074865;28;20024;-73
2021/04/05 04:51:49;;;;;;;5.22;2.92;;;5.10;50.40;;;;;;5073090;28;20078;-73
2021/04/05 04:54:15;;;;;;;9.85;3.85;;;5.10;50.50;;;;;;5055555;28;20021;-73
2021/04/05 04:56:41;;;;;;;4.60;2.78;;;5.10;50.70;;;;;;5055782;28;20082;-73
2021/04/05 04:59:11;;;;;;;7.60;3.47;;;5.10;50.90;;;;;;5054159;28;20082;-72
2021/04/05 05:01:39;;;;;;;5.72;3.17;;;5.20;51.30;;;;;;5054168;28;20483;-73
2021/04/05 05:04:16;;;;;;;8.05;3.35;;;5.20;51.40;;;;;;5055306;28;20031;-72
2021/04/05 05:06:42;;;;;;;8.80;2.97;;;5.20;51.50;;;;;;5055305;28;20017;-73
2021/04/05 05:09:09;;;;;;;4.70;3.05;;;5.20;51.50;;;;;;5055273;28;20104;-73
2021/04/05 05:11:35;;;;;;;9.55;3.80;;;5.20;51.80;;;;;;5055283;28;20029;-73
2021/04/05 05:14:01;;;;;;;5.93;3.22;;;5.30;52.20;;;;;;5069306;28;20119;-73
2021/04/05 05:16:28;;;;;;;5.72;3.42;;;5.30;52.30;;;;;;5075248;28;20096;-73
2021/04/05 05:18:56;;;;;;;8.73;4.28;;;5.30;52.60;;;;;;5073346;28;20493;-73
2021/04/05 05:21:28;;;;;;;6.22;3.03;;;5.40;52.70;;;;;;5075140;28;20036;-72
2021/04/05 05:24:01;;;;;;;6.90;3.95;;;5.40;52.40;;;;;;5075054;28;20024;-73
2021/04/05 05:26:28;;;;;;;7.25;3.20;;;5.50;52.30;;;;;;5073792;28;20024;-73
2021/04/05 05:29:00;;;;;;;7.03;3.25;;;5.60;52.30;;;;;;5074839;28;20043;-73
2021/04/05 05:31:27;;;;;;;6.13;3.17;;;5.60;52.00;;;;;;5073250;28;20049;-73
2021/04/05 05:33:52;;;;;;;7.05;2.90;;;5.70;51.80;;;;;;5074839;28;20021;-73
2021/04/05 05:36:18;;;;;;;5.43;3.00;;;5.80;51.90;;;;;;5073553;28;20027;-73
2021/04/05 05:38:45;;;;;;;5.80;3.25;;;5.90;51.80;;;;;;5074687;28;20024;-73
2021/04/05 05:41:24;;;;;;;5.50;2.72;;;5.90;51.60;;;;;;5073857;28;20029;-73
2021/04/05 05:43:57;;;;;;;11.43;4.47;;;6.00;51.50;;;;;;5074721;28;20048;-73
2021/04/05 05:46:48;;;;;;;7.32;3.47;;;6.10;51.40;;;;;;5073444;28;20094;-73
2021/04/05 05:49:29;;;;;;;6.97;3.47;;;6.20;51.20;;;;;;5074581;28;20031;-73
2021/04/05 05:52:04;;;;;;;6.20;3.78;;;6.30;51.00;;;;;;5058404;28;20045;-73
2021/04/05 05:54:36;;;;;;;9.98;4.78;;;6.40;50.80;;;;;;5054459;28;20029;-73
2021/04/05 05:57:26;;;;;;;8.98;5.50;;;6.50;50.60;;;;;;5063204;28;20075;-72
2021/04/05 06:00:10;;;;;;;10.07;5.63;;;6.60;50.30;;;;;;5059661;28;20386;-73
2021/04/05 06:02:50;;;;;;;8.30;4.65;;;6.70;50.10;;;;;;5072722;28;20443;-73
2021/04/05 06:05:34;;;;;;;9.45;5.13;;;6.80;49.90;;;;;;5058659;28;20437;-72
2021/04/05 06:08:24;;;;;;;10.43;5.10;;;6.90;49.70;;;;;;5058082;28;20028;-73
2021/04/05 06:11:05;;;;;;;11.55;5.72;;;6.90;49.30;;;;;;5066850;28;20486;-73
2021/04/05 06:13:49;;;;;;;9.30;5.40;;;7.10;49.20;;;;;;5064124;28;20027;-73
2021/04/05 06:16:36;;;;;;;8.20;4.38;;;7.10;48.90;;;;;;5073904;28;20024;-73
2021/04/05 06:19:19;;;;;;;8.18;4.28;;;7.20;48.80;;;;;;5071839;28;20098;-73
2021/04/05 06:22:11;;;;;;;7.90;4.55;;;7.30;48.80;;;;;;5072180;28;20070;-73
2021/04/05 06:24:45;;;;;;;9.05;5.15;;;7.30;48.70;;;;;;5065038;28;20178;-73
2021/04/05 06:27:24;;;;;;;8.18;4.82;;;7.40;48.60;;;;;;5072460;28;20032;-73
2021/04/05 06:30:27;;;;;;;11.27;4.93;;;7.50;48.50;;;;;;5053765;28;20414;-73
2021/04/05 06:32:58;;;;;;;6.00;4.53;;;7.60;48.70;;;;;;5069314;28;20040;-73
2021/04/05 06:35:58;;;;;;;7.05;4.35;;;7.70;48.60;;;;;;5072216;28;20025;-73
2021/04/05 06:39:03;;;;;;;10.48;4.40;;;7.70;48.70;;;;;;5073553;28;20029;-73
2021/04/05 06:41:37;;;;;;;11.65;3.55;;;7.80;48.80;;;;;;5052042;28;20064;-73
2021/04/05 06:44:40;;;;;;;12.35;4.45;;;7.90;48.60;;;;;;5066252;28;20106;-73
2021/04/05 06:47:54;;;;;;;9.48;4.30;;;7.90;48.00;;;;;;5067622;28;20055;-74
2021/04/05 06:50:44;;;;;;;10.32;3.70;;;8.00;47.90;;;;;;5067567;28;20020;-73
2021/04/05 06:53:45;;;;;;;8.13;4.07;;;8.10;47.80;;;;;;5071375;28;20028;-73
2021/04/05 06:56:22;;;;;;;8.07;4.07;;;8.20;47.60;;;;;;5053357;28;20021;-73
2021/04/05 06:59:07;;;;;;;6.32;4.20;;;8.40;47.60;;;;;;5053306;28;20021;-73
2021/04/05 07:01:50;;;;;;;6.30;4.10;;;8.50;47.60;;;;;;5053300;28;20052;-73
2021/04/05 07:04:33;;;;;;;7.43;4.10;;;8.60;47.40;;;;;;5053268;28;20470;-73
2021/04/05 07:07:44;;;;;;;11.68;4.43;;;8.80;47.30;;;;;;5053137;28;20104;-73
2021/04/05 07:10:35;;;;;;;7.45;3.97;;;8.90;47.20;;;;;;5052775;28;20450;-74
2021/04/05 07:13:07;;;;;;;7.25;3.63;;;9.10;47.10;;;;;;5051832;28;20025;-73
2021/04/05 07:15:47;;;;;;;11.73;4.60;;;9.20;46.90;;;;;;5051774;28;20028;-73
2021/04/05 07:18:38;;;;;;;8.15;4.00;;;9.30;46.60;;;;;;5052943;28;20074;-73
2021/04/05 07:21:19;;;;;;;12.07;4.75;;;9.40;46.60;;;;;;5052036;28;20108;-73
2021/04/05 07:24:15;;;;;;;9.70;5.13;;;9.50;46.50;;;;;;5053011;28;20483;-73
2021/04/05 07:27:04;;;;;;;10.25;5.55;;;9.60;46.50;;;;;;5052849;28;20039;-73
2021/04/05 07:29:43;;;;;;;10.90;4.90;;;9.70;46.40;;;;;;5056225;28;20048;-73
2021/04/05 07:32:43;;;;;;;11.73;7.38;;;9.80;46.30;;;;;;5069423;28;20016;-73
2021/04/05 07:35:28;;;;;;;12.02;7.05;;;9.80;46.20;;;;;;5065398;28;20078;-74
2021/04/05 07:38:07;;;;;;;11.52;6.50;;;9.90;45.90;;;;;;5051596;28;20025;-73
2021/04/05 07:40:58;;;;;;;10.82;6.00;;;10.00;45.70;;;;;;5052741;28;20017;-73
2021/04/05 07:43:42;;;;;;;15.30;6.20;;;10.00;45.70;;;;;;5052698;28;20033;-74
2021/04/05 07:46:17;;;;;;;9.40;5.22;;;10.10;45.40;;;;;;5052721;28;20021;-73
2021/04/05 07:49:09;;;;;;;16.17;5.97;;;10.20;45.20;;;;;;5060450;28;20425;-73
2021/04/05 07:51:38;;;;;;;12.90;6.43;;;10.30;45.20;;;;;;5052211;28;20045;-74
2021/04/05 07:54:07;;;;;;;12.82;6.13;;;10.40;45.20;;;;;;5051503;28;20021;-74
2021/04/05 07:56:45;;;;;;;8.90;5.20;;;10.50;45.30;;;;;;5054911;28;20052;-73
2021/04/05 07:59:48;;;;;;;13.80;6.30;;;10.50;45.20;;;;;;5070715;28;20025;-73
2021/04/05 08:02:49;;;;;;;14.85;5.97;;;10.60;45.00;;;;;;5051307;28;20195;-74
2021/04/05 08:05:56;;;;;;;20.17;5.70;;;10.70;44.80;;;;;;5065992;28;20151;-73
2021/04/05 08:08:45;;;;;;;9.48;5.00;;;10.80;44.40;;;;;;5062025;28;20036;-74
2021/04/05 08:11:28;;;;;;;21.38;5.85;;;11.00;44.30;;;;;;5072251;28;20013;-74
2021/04/05 08:14:39;;;;;;;10.88;5.75;;;11.10;44.20;;;;;;5052479;28;20025;-74
2021/04/05 08:17:22;;;;;;;13.77;5.85;;;11.20;44.40;;;;;;5060462;28;20115;-74
2021/04/05 08:20:27;;;;;;;10.52;5.82;;;11.30;44.50;;;;;;5052412;28;20024;-74
2021/04/05 08:23:34;;;;;;;9.40;5.07;;;11.40;44.10;;;;;;5052371;28;20048;-74
2021/04/05 08:26:25;;;;;;;12.02;4.88;;;11.60;43.70;;;;;;5054306;28;20044;-74
2021/04/05 08:29:06;;;;;;;10.52;4.78;;;11.70;43.40;;;;;;5052224;28;20382;-74
2021/04/05 08:32:04;;;;;;;9.32;5.00;;;11.80;43.00;;;;;;5052250;28;20021;-74
2021/04/05 08:34:30;;;;;;;9.35;4.50;;;11.90;42.50;;;;;;5055786;28;20021;-74
2021/04/05 08:37:13;;;;;;;9.40;4.35;;;12.10;42.60;;;;;;5055817;28;20035;-74
2021/04/05 08:39:56;;;;;;;7.63;3.80;;;12.20;41.70;;;;;;5055841;28;20467;-74
2021/04/05 08:42:48;;;;;;;9.30;4.38;;;12.30;41.40;;;;;;5055804;28;20104;-74
2021/04/05 08:45:22;;;;;;;5.57;3.40;;;12.50;41.10;;;;;;5054528;28;20044;-74
2021/04/05 08:47:57;;;;;;;;;;;12.60;41.50;;;;;;5068556;28;20028;-75
2021/04/05 08:50:28;;;;;;;8.88;4.22;;;12.80;42.20;;;;;;5054217;28;19913;-74
2021/04/05 08:52:55;;;;;;;10.38;4.50;;;12.90;41.30;;;;;;5065949;28;20042;-74
2021/04/05 08:55:25;;;;;;;7.57;4.15;;;13.10;41.30;;;;;;5075564;28;20021;-74
2021/04/05 08:57:59;;;;;;;11.27;5.43;;;13.30;41.00;;;;;;5072736;28;20028;-74
2021/04/05 09:00:26;;;;;;;7.82;4.30;;;13.40;40.50;;;;;;5064882;28;20108;-74
2021/04/05 09:02:56;;;;;;;7.82;3.67;;;13.50;40.20;;;;;;5075347;28;20492;-74
2021/04/05 09:05:25;;;;;;;5.72;3.20;;;13.70;39.80;;;;;;5057162;28;20112;-74
2021/04/05 09:08:05;;;;;;;6.85;3.55;;;13.80;40.00;;;;;;5053391;28;20029;-75
2021/04/05 09:10:44;;;;;;;6.57;3.30;;;13.90;39.80;;;;;;5055161;28;20021;-75
2021/04/05 09:13:14;;;;;;;5.85;3.28;;;14.00;39.60;;;;;;5053976;28;20021;-75
2021/04/05 09:16:21;;;;;;;4.90;3.08;;;14.20;39.00;;;;;;5058308;28;20509;-75
2021/04/05 09:19:15;;;;;;;4.13;2.88;;;14.40;39.00;;;;;;5047806;28;20037;-75
2021/04/05 09:22:05;;;;;;;9.20;3.13;;;14.70;38.80;;;;;;5070971;28;20099;-75
2021/04/05 09:25:01;;;;;;;6.90;3.72;;;15.00;38.20;;;;;;5075069;28;20381;-75
2021/04/05 09:27:48;;;;;;;8.82;3.55;;;15.20;36.00;;;;;;5074894;28;20679;-75
2021/04/05 09:30:30;;;;;;;4.97;2.88;;;15.50;35.20;;;;;;5074907;28;20035;-75
2021/04/05 09:33:14;;;;;;;8.15;3.60;;;15.70;35.30;;;;;;5066358;28;20029;-74
2021/04/05 09:36:00;;;;;;;10.13;3.13;;;16.00;34.80;;;;;;5054720;28;20017;-75
2021/04/05 09:38:45;;;;;;;8.88;3.92;;;16.20;34.20;;;;;;5054692;28;20029;-75
2021/04/05 09:41:49;;;;;;;8.30;3.22;;;16.40;33.50;;;;;;5054695;28;20025;-75
2021/04/05 09:44:49;;;;;;;5.63;3.22;;;16.70;34.40;;;;;;5060621;28;20145;-75
2021/04/05 09:47:35;;;;;;;7.53;3.63;;;17.10;34.00;;;;;;5052776;28;20044;-75
2021/04/05 09:50:32;;;;;;;5.63;3.25;;;17.40;33.00;;;;;;5067108;28;20055;-75
2021/04/05 09:53:35;;;;;;;5.88;3.13;;;17.60;32.60;;;;;;5059067;28;20371;-75
2021/04/05 09:56:06;;;;;;;9.95;3.45;;;17.90;31.40;;;;;;5054255;28;20029;-75
2021/04/05 09:58:38;;;;;;;5.20;3.40;;;18.00;31.10;;;;;;5065006;28;20064;-74
2021/04/05 10:01:16;;;;;;;6.82;3.47;;;18.20;30.70;;;;;;5065561;28;20400;-75
2021/04/05 10:03:44;;;;;;;13.18;3.70;;;18.40;29.90;;;;;;5067200;28;20036;-74
2021/04/05 10:06:17;;;;;;;6.53;4.13;;;18.60;30.30;;;;;;5072898;28;20333;-74
2021/04/05 10:08:44;;;;;;;6.07;3.97;;;18.70;29.70;;;;;;5053571;28;20207;-75
2021/04/05 10:11:12;;;;;;;6.85;3.30;;;18.90;29.30;;;;;;5054019;28;20090;-75
2021/04/05 10:14:02;;;;;;;6.15;3.72;;;19.00;29.70;;;;;;5052756;28;20021;-75
2021/04/05 10:16:30;;;;;;;5.05;3.50;;;19.20;29.20;;;;;;5053996;28;20094;-75
2021/04/05 10:19:11;;;;;;;6.72;3.70;;;19.30;28.80;;;;;;5052602;28;20110;-75
2021/04/05 10:21:46;;;;;;;6.60;3.00;;;19.30;28.40;;;;;;5061890;28;20024;-74
2021/04/05 10:24:14;;;;;;;6.03;3.83;;;19.40;28.90;;;;;;5070514;28;20036;-75
2021/04/05 10:26:42;;;;;;;4.43;2.80;;;19.50;28.20;;;;;;5072017;28;20048;-74
2021/04/05 10:29:11;;;;;;;5.82;2.50;;;19.70;27.50;;;;;;5063399;28;20044;-75
2021/04/05 10:31:38;;;;;;;5.93;3.30;;;19.80;27.10;;;;;;5053414;28;20025;-74
2021/04/05 10:34:07;;;;;;;4.68;2.30;;;19.90;26.00;;;;;;5053255;28;20017;-74
2021/04/05 10:36:51;;;;;;;10.10;4.25;;;19.90;26.30;;;;;;5053326;28;20017;-74
2021/04/05 10:39:17;;;;;;;6.63;3.47;;;19.90;25.80;;;;;;5053591;28;20130;-74
2021/04/05 10:41:52;;;;;;;9.93;3.20;;;19.90;25.50;;;;;;5052017;28;20070;-74
2021/04/05 10:44:22;;;;;;;6.82;3.33;;;19.90;25.20;;;;;;5060653;28;20028;-74
2021/04/05 10:46:57;;;;;;;10.65;4.00;;;19.80;24.90;;;;;;5067447;28;20017;-74
2021/04/05 10:49:30;;;;;;;6.18;3.25;;;19.80;25.00;;;;;;5054476;28;20095;-74
2021/04/05 10:52:19;;;;;;;8.65;3.05;;;19.80;24.90;;;;;;5064920;28;20048;-74
2021/04/05 10:54:50;;;;;;;6.90;2.85;;;19.80;25.10;;;;;;5071403;28;20016;-74
2021/04/05 10:57:27;;;;;;;7.00;3.45;;;19.90;25.50;;;;;;5067015;28;20078;-74
2021/04/05 10:59:55;;;;;;;8.95;4.38;;;20.00;25.20;;;;;;5072618;28;20506;-74
2021/04/05 11:02:30;;;;;;;9.60;4.72;;;20.00;24.60;;;;;;5067323;28;20066;-74
2021/04/05 11:05:10;;;;;;;8.20;3.45;;;20.10;25.00;;;;;;5065575;28;20024;-74
2021/04/05 11:07:38;;;;;;;6.55;3.70;;;20.20;25.30;;;;;;5055788;28;20375;-75
2021/04/05 11:10:07;;;;;;;5.05;3.78;;;20.30;24.80;;;;;;5071571;28;20017;-74
2021/04/05 11:12:42;;;;;;;11.75;6.40;;;20.40;24.00;;;;;;5069888;28;20070;-75
2021/04/05 11:15:11;;;;;;;7.40;3.85;;;20.40;24.00;;;;;;5052808;28;20099;-74
2021/04/05 11:17:42;;;;;;;9.05;4.40;;;20.50;24.30;;;;;;5056108;28;20112;-75
2021/04/05 11:20:10;;;;;;;6.72;2.83;;;20.60;23.70;;;;;;5051410;28;20052;-74
2021/04/05 11:22:38;;;;;;;5.25;2.60;;;20.60;23.50;;;;;;5052820;28;20021;-75
2021/04/05 11:25:07;;;;;;;8.45;3.78;;;20.70;23.70;;;;;;5052648;28;20021;-75
2021/04/05 11:27:42;;;;;;;5.75;3.28;;;20.70;23.80;;;;;;5052496;28;20212;-75
2021/04/05 11:30:09;;;;;;;5.40;3.10;;;20.70;23.60;;;;;;5052270;28;20021;-74
2021/04/05 11:32:38;;;;;;;7.18;3.10;;;20.80;23.30;;;;;;5054638;28;20374;-75
2021/04/05 11:35:10;;;;;;;8.35;3.50;;;20.80;23.50;;;;;;5062511;28;20048;-73
2021/04/05 11:37:40;;;;;;;6.00;3.40;;;20.90;23.70;;;;;;5061222;28;20593;-72
2021/04/05 11:40:12;;;;;;;4.85;2.72;;;20.90;23.30;;;;;;5067438;28;20078;-75
2021/04/05 11:42:46;;;;;;;7.57;2.97;;;21.00;23.70;;;;;;5061424;28;20025;-75
2021/04/05 11:45:21;;;;;;;7.18;2.38;;;21.10;23.20;;;;;;5056287;28;20029;-76
2021/04/05 11:47:49;;;;;;;4.60;2.65;;;21.00;22.80;;;;;;5050919;28;20029;-73
2021/04/05 11:50:18;;;;;;;4.93;2.63;;;21.00;22.70;;;;;;5052110;28;20017;-73
2021/04/05 11:52:53;;;;;;;4.75;2.20;;;21.00;22.60;;;;;;5052417;28;20021;-74
2021/04/05 11:55:29;;;;;;;4.97;2.90;;;21.00;23.10;;;;;;5055713;28;20025;-73
2021/04/05 11:58:04;;;;;;;7.35;3.58;;;21.00;22.80;;;;;;5055615;28;20378;-74
2021/04/05 12:00:39;;;;;;;8.48;3.78;;;21.00;22.30;;;;;;5056220;28;20024;-74
2021/04/05 12:03:32;;;;;;;8.98;4.00;;;21.00;22.70;;;;;;5058549;28;20438;-74
2021/04/05 12:06:13;;;;;;;7.45;3.42;;;20.90;22.90;;;;;;5072287;28;20074;-75
2021/04/05 12:08:47;;;;;;;5.68;3.42;;;20.80;22.20;;;;;;5074071;28;20044;-74
2021/04/05 12:11:16;;;;;;;8.77;3.10;;;20.70;22.50;;;;;;5064723;28;20025;-77
2021/04/05 12:14:06;;;;;;;11.80;2.45;;;20.60;22.90;;;;;;5061821;28;20029;-71
2021/04/05 12:16:33;;;;;;;3.33;2.05;;;20.50;22.30;;;;;;5061824;28;20032;-72
2021/04/05 12:19:00;;;;;;;3.45;2.13;;;20.50;22.80;;;;;;5055956;28;20021;-72
2021/04/05 12:21:28;;;;;;;13.52;2.50;;;20.60;23.10;;;;;;5055863;28;20021;-71
2021/04/05 12:23:59;;;;;;;9.65;3.03;;;20.70;22.80;;;;;;5062225;28;20378;-70
2021/04/05 12:26:31;;;;;;;5.32;2.72;;;20.70;22.40;;;;;;5071684;28;20385;-70
2021/04/05 12:29:08;;;;;;;7.72;2.42;;;20.80;22.70;;;;;;5074077;28;20104;-71
2021/04/05 12:31:35;;;;;;;6.50;2.95;;;21.00;23.10;;;;;;5074420;28;20122;-71
2021/04/05 12:34:15;;;;;;;4.35;2.72;;;21.00;22.30;;;;;;5075784;28;20039;-70
2021/04/05 12:36:42;;;;;;;4.95;2.35;;;21.10;21.90;;;;;;5060138;28;20017;-69
2021/04/05 12:39:12;;;;;;;9.07;2.60;;;21.20;22.30;;;;;;5064054;28;20020;-70
2021/04/05 12:41:48;;;;;;;4.20;2.28;;;21.30;22.30;;;;;;5063626;28;20025;-69
2021/04/05 12:44:30;;;;;;;4.03;2.30;;;21.40;22.10;;;;;;5082736;28;20039;-70
2021/04/05 12:46:58;;;;;;;5.25;2.47;;;21.50;21.80;;;;;;5096010;28;20024;-72
2021/04/05 12:49:27;;;;;;;4.18;1.92;;;21.60;22.10;;;;;;5095875;28;20020;-71
2021/04/05 12:52:00;;;;;;;3.40;2.10;;;21.70;21.80;;;;;;5095682;28;20598;-70
2021/04/05 12:54:29;;;;;;;10.17;2.03;;;21.80;21.70;;;;;;5094637;28;20099;-70
2021/04/05 12:57:00;;;;;;;5.07;2.10;;;21.90;21.20;;;;;;5071775;28;20017;-70
2021/04/05 12:59:28;;;;;;;2.83;1.60;;;22.00;21.70;;;;;;5072355;28;20036;-72
2021/04/05 13:01:59;;;;;;;4.72;2.67;;;22.00;20.80;;;;;;5058064;28;20033;-70
2021/04/05 13:04:29;;;;;;;3.90;1.92;;;22.10;21.10;;;;;;5053700;28;20390;-70
2021/04/05 13:07:14;;;;;;;6.68;1.77;;;22.20;21.00;;;;;;5058154;28;20474;-70
2021/04/05 13:10:14;;;;;;;6.15;1.63;;;22.20;20.60;;;;;;5075128;28;20032;-70
2021/04/05 13:12:47;;;;;;;4.15;1.70;;;22.20;21.30;;;;;;5072637;28;20032;-71
2021/04/05 13:15:21;;;;;;;2.08;1.30;;;22.30;21.00;;;;;;5072772;28;20032;-70
2021/04/05 13:17:53;;;;;;;4.00;1.70;;;22.30;20.70;;;;;;5072390;28;20043;-71
2021/04/05 13:20:31;;;;;;;3.25;1.40;;;22.30;20.80;;;;;;5041694;28;20056;-70
2021/04/05 13:23:01;;;;;;;2.60;1.23;;;22.40;20.90;;;;;;5035878;28;20040;-71
2021/04/05 13:25:35;;;;;;;1.80;1.23;;;22.40;19.70;;;;;;5064208;28;20028;-71
2021/04/05 13:28:03;;;;;;;5.93;1.23;;;22.40;19.50;;;;;;5058380;28;20593;-71
2021/04/05 13:30:34;;;;;;;2.92;1.58;;;22.40;19.50;;;;;;5056963;28;20033;-70